sensor_id;sensor_type;location;lat;lon;timestamp;P1;durP1;ratioP1;P2;durP2;ratioP2
35919;SDS011;36160;53.370;-6.196;2023-04-25T00:01:16;5.10;;;2.10;;
35919;SDS011;36160;53.370;-6.196;2023-04-25T00:03:42;4.53;;;2.20;;
35919;SDS011;36160;53.370;-6.196;2023-04-25T00:06:08;5.78;;;2.30;;
35919;SDS011;36160;53.370;-6.196;2023-04-25T00:08:34;3.65;;;2.08;;
35919;SDS011;36160;53.370;-6.196;2023-04-25T00:11:00;4.78;;;1.90;;
35919;SDS011;36160;53.370;-6.196;2023-04-25T00:13:26;7.78;;;1.88;;
35919;SDS011;36160;53.370;-6.196;2023-04-25T00:15:52;7.82;;;2.05;;
35919;SDS011;36160;53.370;-6.196;2023-04-25T00:18:21;2.75;;;1.83;;
35919;SDS011;36160;53.370;-6.196;2023-04-25T00:20:47;3.08;;;2.22;;
35919;SDS011;36160;53.370;-6.196;2023-04-25T00:23:13;7.07;;;2.47;;
35919;SDS011;36160;53.370;-6.196;2023-04-25T00:25:45;4.47;;;1.80;;
35919;SDS011;36160;53.370;-6.196;2023-04-25T00:28:13;4.38;;;1.80;;
35919;SDS011;36160;53.370;-6.196;2023-04-25T00:30:39;2.90;;;2.03;;
35919;SDS011;36160;53.370;-6.196;2023-04-25T00:33:05;4.93;;;2.10;;
35919;SDS011;36160;53.370;-6.196;2023-04-25T00:35:31;4.70;;;2.30;;
35919;SDS011;36160;53.370;-6.196;2023-04-25T00:37:57;3.83;;;1.83;;
35919;SDS011;36160;53.370;-6.196;2023-04-25T00:40:22;2.60;;;2.30;;
35919;SDS011;36160;53.370;-6.196;2023-04-25T00:42:49;5.80;;;1.98;;
35919;SDS011;36160;53.370;-6.196;2023-04-25T00:45:16;5.70;;;2.92;;
35919;SDS011;36160;53.370;-6.196;2023-04-25T00:47:43;7.03;;;2.38;;
35919;SDS011;36160;53.370;-6.196;2023-04-25T00:50:09;5.25;;;2.33;;
35919;SDS011;36160;53.370;-6.196;2023-04-25T00:52:37;4.97;;;2.40;;
35919;SDS011;36160;53.370;-6.196;2023-04-25T00:55:05;4.93;;;1.92;;
35919;SDS011;36160;53.370;-6.196;2023-04-25T00:57:32;3.53;;;2.13;;
35919;SDS011;36160;53.370;-6.196;2023-04-25T00:59:58;9.10;;;3.03;;
35919;SDS011;36160;53.370;-6.196;2023-04-25T01:02:24;8.23;;;2.50;;
35919;SDS011;36160;53.370;-6.196;2023-04-25T01:04:52;4.20;;;2.30;;
35919;SDS011;36160;53.370;-6.196;2023-04-25T01:07:18;4.45;;;1.83;;
35919;SDS011;36160;53.370;-6.196;2023-04-25T01:09:44;7.05;;;2.00;;
35919;SDS011;36160;53.370;-6.196;2023-04-25T01:12:10;3.75;;;2.15;;
35919;SDS011;36160;53.370;-6.196;2023-04-25T01:14:37;7.22;;;2.08;;
35919;SDS011;36160;53.370;-6.196;2023-04-25T01:17:03;7.63;;;2.10;;
35919;SDS011;36160;53.370;-6.196;2023-04-25T01:19:29;3.92;;;2.00;;
35919;SDS011;36160;53.370;-6.196;2023-04-25T01:21:55;3.88;;;2.20;;
35919;SDS011;36160;53.370;-6.196;2023-04-25T01:24:21;5.15;;;2.40;;
35919;SDS011;36160;53.370;-6.196;2023-04-25T01:26:47;5.53;;;2.47;;
35919;SDS011;36160;53.370;-6.196;2023-04-25T01:29:18;4.25;;;2.25;;
35919;SDS011;36160;53.370;-6.196;2023-04-25T01:31:45;12.05;;;3.58;;
35919;SDS011;36160;53.370;-6.196;2023-04-25T01:34:14;6.22;;;2.90;;
35919;SDS011;36160;53.370;-6.196;2023-04-25T01:36:40;4.65;;;2.40;;
35919;SDS011;36160;53.370;-6.196;2023-04-25T01:39:06;6.38;;;3.05;;
35919;SDS011;36160;53.370;-6.196;2023-04-25T01:41:32;2.83;;;2.13;;
35919;SDS011;36160;53.370;-6.196;2023-04-25T01:44:02;4.22;;;2.40;;
35919;SDS011;36160;53.370;-6.196;2023-04-25T01:46:28;7.85;;;2.50;;
35919;SDS011;36160;53.370;-6.196;2023-04-25T01:48:54;4.30;;;2.47;;
35919;SDS011;36160;53.370;-6.196;2023-04-25T01:51:20;4.13;;;2.88;;
35919;SDS011;36160;53.370;-6.196;2023-04-25T01:53:45;8.70;;;3.30;;
35919;SDS011;36160;53.370;-6.196;2023-04-25T01:56:11;7.43;;;2.72;;
35919;SDS011;36160;53.370;-6.196;2023-04-25T01:58:37;3.90;;;2.38;;
35919;SDS011;36160;53.370;-6.196;2023-04-25T02:01:02;2.75;;;2.35;;
35919;SDS011;36160;53.370;-6.196;2023-04-25T02:03:29;6.53;;;2.33;;
35919;SDS011;36160;53.370;-6.196;2023-04-25T02:05:56;4.40;;;2.30;;
35919;SDS011;36160;53.370;-6.196;2023-04-25T02:08:21;4.22;;;2.20;;
35919;SDS011;36160;53.370;-6.196;2023-04-25T02:10:47;6.97;;;3.15;;
35919;SDS011;36160;53.370;-6.196;2023-04-25T02:13:13;6.78;;;2.97;;
35919;SDS011;36160;53.370;-6.196;2023-04-25T02:15:38;6.90;;;2.30;;
35919;SDS011;36160;53.370;-6.196;2023-04-25T02:18:04;5.80;;;2.38;;
35919;SDS011;36160;53.370;-6.196;2023-04-25T02:20:31;6.47;;;2.40;;
35919;SDS011;36160;53.370;-6.196;2023-04-25T02:22:57;6.68;;;2.38;;
35919;SDS011;36160;53.370;-6.196;2023-04-25T02:25:23;11.45;;;3.25;;
35919;SDS011;36160;53.370;-6.196;2023-04-25T02:27:48;7.63;;;2.78;;
35919;SDS011;36160;53.370;-6.196;2023-04-25T02:30:15;5.32;;;2.83;;
35919;SDS011;36160;53.370;-6.196;2023-04-25T02:32:41;6.00;;;2.60;;
35919;SDS011;36160;53.370;-6.196;2023-04-25T02:35:06;3.55;;;2.40;;
35919;SDS011;36160;53.370;-6.196;2023-04-25T02:37:33;5.22;;;2.75;;
35919;SDS011;36160;53.370;-6.196;2023-04-25T02:40:00;8.95;;;3.15;;
35919;SDS011;36160;53.370;-6.196;2023-04-25T02:42:26;8.48;;;2.97;;
35919;SDS011;36160;53.370;-6.196;2023-04-25T02:44:52;5.78;;;3.15;;
35919;SDS011;36160;53.370;-6.196;2023-04-25T02:47:18;5.85;;;2.55;;
35919;SDS011;36160;53.370;-6.196;2023-04-25T02:49:44;6.72;;;2.70;;
35919;SDS011;36160;53.370;-6.196;2023-04-25T02:52:10;7.13;;;2.85;;
35919;SDS011;36160;53.370;-6.196;2023-04-25T02:54:36;5.15;;;2.90;;
35919;SDS011;36160;53.370;-6.196;2023-04-25T02:57:02;8.57;;;3.40;;
35919;SDS011;36160;53.370;-6.196;2023-04-25T02:59:28;4.95;;;3.35;;
35919;SDS011;36160;53.370;-6.196;2023-04-25T03:01:54;7.57;;;3.70;;
35919;SDS011;36160;53.370;-6.196;2023-04-25T03:04:19;5.25;;;2.92;;
35919;SDS011;36160;53.370;-6.196;2023-04-25T03:06:45;6.13;;;3.42;;
35919;SDS011;36160;53.370;-6.196;2023-04-25T03:09:11;7.45;;;2.22;;
35919;SDS011;36160;53.370;-6.196;2023-04-25T03:11:38;8.90;;;2.95;;
35919;SDS011;36160;53.370;-6.196;2023-04-25T03:14:04;6.85;;;2.78;;
35919;SDS011;36160;53.370;-6.196;2023-04-25T03:16:30;6.13;;;3.33;;
35919;SDS011;36160;53.370;-6.196;2023-04-25T03:18:56;6.43;;;3.65;;
35919;SDS011;36160;53.370;-6.196;2023-04-25T03:21:21;10.57;;;2.90;;
35919;SDS011;36160;53.370;-6.196;2023-04-25T03:23:47;7.75;;;3.25;;
35919;SDS011;36160;53.370;-6.196;2023-04-25T03:26:13;8.15;;;2.90;;
35919;SDS011;36160;53.370;-6.196;2023-04-25T03:28:39;7.70;;;2.90;;
35919;SDS011;36160;53.370;-6.196;2023-04-25T03:31:05;5.25;;;2.95;;
35919;SDS011;36160;53.370;-6.196;2023-04-25T03:33:31;6.63;;;3.10;;
35919;SDS011;36160;53.370;-6.196;2023-04-25T03:35:57;7.78;;;3.03;;
35919;SDS011;36160;53.370;-6.196;2023-04-25T03:38:22;6.75;;;2.90;;
35919;SDS011;36160;53.370;-6.196;2023-04-25T03:40:49;6.82;;;2.58;;
35919;SDS011;36160;53.370;-6.196;2023-04-25T03:43:15;9.90;;;2.88;;
35919;SDS011;36160;53.370;-6.196;2023-04-25T03:45:41;9.43;;;2.50;;
35919;SDS011;36160;53.370;-6.196;2023-04-25T03:48:07;4.80;;;3.10;;
35919;SDS011;36160;53.370;-6.196;2023-04-25T03:50:33;6.05;;;2.78;;
35919;SDS011;36160;53.370;-6.196;2023-04-25T03:52:58;5.45;;;2.78;;
35919;SDS011;36160;53.370;-6.196;2023-04-25T03:55:24;6.75;;;3.08;;
35919;SDS011;36160;53.370;-6.196;2023-04-25T03:57:50;7.18;;;2.83;;
35919;SDS011;36160;53.370;-6.196;2023-04-25T04:00:15;10.00;;;2.67;;
35919;SDS011;36160;53.370;-6.196;2023-04-25T04:02:41;7.57;;;2.55;;
35919;SDS011;36160;53.370;-6.196;2023-04-25T04:05:07;13.95;;;3.42;;
35919;SDS011;36160;53.370;-6.196;2023-04-25T04:07:33;8.73;;;2.47;;
35919;SDS011;36160;53.370;-6.196;2023-04-25T04:10:04;15.23;;;3.58;;
35919;SDS011;36160;53.370;-6.196;2023-04-25T04:12:34;11.05;;;2.67;;
35919;SDS011;36160;53.370;-6.196;2023-04-25T04:14:59;10.20;;;3.15;;
35919;SDS011;36160;53.370;-6.196;2023-04-25T04:17:26;7.55;;;2.83;;
35919;SDS011;36160;53.370;-6.196;2023-04-25T04:19:51;10.10;;;3.28;;
35919;SDS011;36160;53.370;-6.196;2023-04-25T04:22:17;8.52;;;3.10;;
35919;SDS011;36160;53.370;-6.196;2023-04-25T04:24:43;7.68;;;2.85;;
35919;SDS011;36160;53.370;-6.196;2023-04-25T04:27:09;7.55;;;3.08;;
35919;SDS011;36160;53.370;-6.196;2023-04-25T04:29:35;8.90;;;5.05;;
35919;SDS011;36160;53.370;-6.196;2023-04-25T04:32:01;7.53;;;3.45;;
35919;SDS011;36160;53.370;-6.196;2023-04-25T04:34:28;12.27;;;3.50;;
35919;SDS011;36160;53.370;-6.196;2023-04-25T04:36:54;6.82;;;3.05;;
35919;SDS011;36160;53.370;-6.196;2023-04-25T04:39:20;10.60;;;3.55;;
35919;SDS011;36160;53.370;-6.196;2023-04-25T04:41:46;10.70;;;3.05;;
35919;SDS011;36160;53.370;-6.196;2023-04-25T04:44:11;7.32;;;3.67;;
35919;SDS011;36160;53.370;-6.196;2023-04-25T04:46:39;9.52;;;3.97;;
35919;SDS011;36160;53.370;-6.196;2023-04-25T04:49:05;9.45;;;3.75;;
35919;SDS011;36160;53.370;-6.196;2023-04-25T04:51:31;18.65;;;4.85;;
35919;SDS011;36160;53.370;-6.196;2023-04-25T04:53:58;10.70;;;5.45;;
35919;SDS011;36160;53.370;-6.196;2023-04-25T04:56:27;10.68;;;4.80;;
35919;SDS011;36160;53.370;-6.196;2023-04-25T04:58:56;15.52;;;5.80;;
35919;SDS011;36160;53.370;-6.196;2023-04-25T05:01:22;9.40;;;5.22;;
35919;SDS011;36160;53.370;-6.196;2023-04-25T05:03:48;16.60;;;6.65;;
35919;SDS011;36160;53.370;-6.196;2023-04-25T05:06:14;13.25;;;6.32;;
35919;SDS011;36160;53.370;-6.196;2023-04-25T05:08:41;11.05;;;4.80;;
35919;SDS011;36160;53.370;-6.196;2023-04-25T05:11:07;13.18;;;4.63;;
35919;SDS011;36160;53.370;-6.196;2023-04-25T05:13:32;14.80;;;4.65;;
35919;SDS011;36160;53.370;-6.196;2023-04-25T05:15:58;12.43;;;5.03;;
35919;SDS011;36160;53.370;-6.196;2023-04-25T05:18:24;13.80;;;5.63;;
35919;SDS011;36160;53.370;-6.196;2023-04-25T05:20:50;14.15;;;6.57;;
35919;SDS011;36160;53.370;-6.196;2023-04-25T05:23:15;20.20;;;4.95;;
35919;SDS011;36160;53.370;-6.196;2023-04-25T05:25:41;14.95;;;4.10;;
35919;SDS011;36160;53.370;-6.196;2023-04-25T05:28:07;12.65;;;4.30;;
35919;SDS011;36160;53.370;-6.196;2023-04-25T05:30:33;9.07;;;4.10;;
35919;SDS011;36160;53.370;-6.196;2023-04-25T05:32:59;14.80;;;5.65;;
35919;SDS011;36160;53.370;-6.196;2023-04-25T05:35:26;10.57;;;4.47;;
35919;SDS011;36160;53.370;-6.196;2023-04-25T05:37:52;13.20;;;4.72;;
35919;SDS011;36160;53.370;-6.196;2023-04-25T05:40:18;7.97;;;4.10;;
35919;SDS011;36160;53.370;-6.196;2023-04-25T05:42:43;10.10;;;4.50;;
35919;SDS011;36160;53.370;-6.196;2023-04-25T05:45:09;15.63;;;4.80;;
35919;SDS011;36160;53.370;-6.196;2023-04-25T05:47:35;10.18;;;5.43;;
35919;SDS011;36160;53.370;-6.196;2023-04-25T05:50:01;32.53;;;8.13;;
35919;SDS011;36160;53.370;-6.196;2023-04-25T05:52:27;7.55;;;4.35;;
35919;SDS011;36160;53.370;-6.196;2023-04-25T06:55:44;15.48;;;6.45;;
35919;SDS011;36160;53.370;-6.196;2023-04-25T06:58:10;14.82;;;5.20;;
35919;SDS011;36160;53.370;-6.196;2023-04-25T07:00:35;11.10;;;5.13;;
35919;SDS011;36160;53.370;-6.196;2023-04-25T07:03:01;15.55;;;5.78;;
35919;SDS011;36160;53.370;-6.196;2023-04-25T07:05:28;15.95;;;6.13;;
35919;SDS011;36160;53.370;-6.196;2023-04-25T07:07:55;11.68;;;5.53;;
35919;SDS011;36160;53.370;-6.196;2023-04-25T07:10:20;14.77;;;5.05;;
35919;SDS011;36160;53.370;-6.196;2023-04-25T07:12:46;16.27;;;5.22;;
35919;SDS011;36160;53.370;-6.196;2023-04-25T07:15:12;16.77;;;4.25;;
35919;SDS011;36160;53.370;-6.196;2023-04-25T07:17:38;8.38;;;4.05;;
35919;SDS011;36160;53.370;-6.196;2023-04-25T07:20:04;11.35;;;3.72;;
35919;SDS011;36160;53.370;-6.196;2023-04-25T07:22:31;8.07;;;3.67;;
35919;SDS011;36160;53.370;-6.196;2023-04-25T07:24:57;8.77;;;4.15;;
35919;SDS011;36160;53.370;-6.196;2023-04-25T07:27:23;10.20;;;4.40;;
35919;SDS011;36160;53.370;-6.196;2023-04-25T07:29:49;14.60;;;3.35;;
35919;SDS011;36160;53.370;-6.196;2023-04-25T07:32:15;7.75;;;3.38;;
35919;SDS011;36160;53.370;-6.196;2023-04-25T07:34:42;8.45;;;2.70;;
35919;SDS011;36160;53.370;-6.196;2023-04-25T07:37:07;11.57;;;2.97;;
35919;SDS011;36160;53.370;-6.196;2023-04-25T07:39:33;10.32;;;4.10;;
35919;SDS011;36160;53.370;-6.196;2023-04-25T07:41:59;10.98;;;4.68;;
35919;SDS011;36160;53.370;-6.196;2023-04-25T07:44:27;10.65;;;2.83;;
35919;SDS011;36160;53.370;-6.196;2023-04-25T07:46:52;11.48;;;3.65;;
35919;SDS011;36160;53.370;-6.196;2023-04-25T07:49:18;13.93;;;4.10;;
35919;SDS011;36160;53.370;-6.196;2023-04-25T07:51:45;7.35;;;3.30;;
35919;SDS011;36160;53.370;-6.196;2023-04-25T07:54:13;8.32;;;3.25;;
35919;SDS011;36160;53.370;-6.196;2023-04-25T07:56:40;6.43;;;3.67;;
35919;SDS011;36160;53.370;-6.196;2023-04-25T07:59:06;13.73;;;3.75;;
35919;SDS011;36160;53.370;-6.196;2023-04-25T08:01:32;18.95;;;5.30;;
35919;SDS011;36160;53.370;-6.196;2023-04-25T08:03:59;13.23;;;4.05;;
35919;SDS011;36160;53.370;-6.196;2023-04-25T08:06:24;7.32;;;3.67;;
35919;SDS011;36160;53.370;-6.196;2023-04-25T08:08:50;10.80;;;3.47;;
35919;SDS011;36160;53.370;-6.196;2023-04-25T08:11:16;10.75;;;4.47;;
35919;SDS011;36160;53.370;-6.196;2023-04-25T08:13:42;10.25;;;4.05;;
35919;SDS011;36160;53.370;-6.196;2023-04-25T08:16:08;12.85;;;4.13;;
35919;SDS011;36160;53.370;-6.196;2023-04-25T08:18:34;13.40;;;4.25;;
35919;SDS011;36160;53.370;-6.196;2023-04-25T08:20:59;12.68;;;3.58;;
35919;SDS011;36160;53.370;-6.196;2023-04-25T08:23:25;9.77;;;3.95;;
35919;SDS011;36160;53.370;-6.196;2023-04-25T08:25:51;10.95;;;4.10;;
35919;SDS011;36160;53.370;-6.196;2023-04-25T14:44:10;13.18;;;3.00;;
35919;SDS011;36160;53.370;-6.196;2023-04-25T14:46:36;9.35;;;3.22;;
35919;SDS011;36160;53.370;-6.196;2023-04-25T14:49:02;14.27;;;3.90;;
35919;SDS011;36160;53.370;-6.196;2023-04-25T14:51:28;7.95;;;2.97;;
35919;SDS011;36160;53.370;-6.196;2023-04-25T14:53:54;10.00;;;3.10;;
35919;SDS011;36160;53.370;-6.196;2023-04-25T15:59:48;10.10;;;2.88;;
35919;SDS011;36160;53.370;-6.196;2023-04-25T16:02:14;10.48;;;3.90;;
35919;SDS011;36160;53.370;-6.196;2023-04-25T16:04:41;7.60;;;2.42;;
35919;SDS011;36160;53.370;-6.196;2023-04-25T16:07:06;10.40;;;2.92;;
35919;SDS011;36160;53.370;-6.196;2023-04-25T16:09:33;11.05;;;3.13;;
35919;SDS011;36160;53.370;-6.196;2023-04-25T16:11:59;8.73;;;2.40;;
35919;SDS011;36160;53.370;-6.196;2023-04-25T16:14:25;9.25;;;2.85;;
35919;SDS011;36160;53.370;-6.196;2023-04-25T16:16:51;15.18;;;2.83;;
35919;SDS011;36160;53.370;-6.196;2023-04-25T16:19:17;7.10;;;2.40;;
35919;SDS011;36160;53.370;-6.196;2023-04-25T16:21:42;19.35;;;3.70;;
35919;SDS011;36160;53.370;-6.196;2023-04-25T16:24:08;9.05;;;4.03;;
35919;SDS011;36160;53.370;-6.196;2023-04-25T16:26:34;11.68;;;2.50;;
35919;SDS011;36160;53.370;-6.196;2023-04-25T16:29:03;11.82;;;2.97;;
35919;SDS011;36160;53.370;-6.196;2023-04-25T16:31:30;8.23;;;2.55;;
35919;SDS011;36160;53.370;-6.196;2023-04-25T16:33:57;9.90;;;2.55;;
35919;SDS011;36160;53.370;-6.196;2023-04-25T16:36:23;6.78;;;2.42;;
35919;SDS011;36160;53.370;-6.196;2023-04-25T16:38:49;6.97;;;2.63;;
35919;SDS011;36160;53.370;-6.196;2023-04-25T16:41:14;17.30;;;2.85;;
35919;SDS011;36160;53.370;-6.196;2023-04-25T16:43:40;21.73;;;6.07;;
35919;SDS011;36160;53.370;-6.196;2023-04-25T16:46:06;10.32;;;4.00;;
35919;SDS011;36160;53.370;-6.196;2023-04-25T16:48:32;11.48;;;3.22;;
35919;SDS011;36160;53.370;-6.196;2023-04-25T16:50:58;7.90;;;2.83;;
35919;SDS011;36160;53.370;-6.196;2023-04-25T16:53:25;8.85;;;2.38;;
35919;SDS011;36160;53.370;-6.196;2023-04-25T16:55:51;8.95;;;2.42;;
35919;SDS011;36160;53.370;-6.196;2023-04-25T16:58:16;11.10;;;3.78;;
35919;SDS011;36160;53.370;-6.196;2023-04-25T17:00:43;14.13;;;3.90;;
35919;SDS011;36160;53.370;-6.196;2023-04-25T17:03:11;16.20;;;4.28;;
35919;SDS011;36160;53.370;-6.196;2023-04-25T17:05:37;7.03;;;2.95;;
35919;SDS011;36160;53.370;-6.196;2023-04-25T17:08:04;15.50;;;3.40;;
35919;SDS011;36160;53.370;-6.196;2023-04-25T17:10:30;6.25;;;2.25;;
35919;SDS011;36160;53.370;-6.196;2023-04-25T17:12:57;9.98;;;3.58;;
35919;SDS011;36160;53.370;-6.196;2023-04-25T17:15:23;3.53;;;2.08;;
35919;SDS011;36160;53.370;-6.196;2023-04-25T17:17:49;9.82;;;3.22;;
35919;SDS011;36160;53.370;-6.196;2023-04-25T17:20:15;8.20;;;2.50;;
35919;SDS011;36160;53.370;-6.196;2023-04-25T17:22:41;9.30;;;2.60;;
35919;SDS011;36160;53.370;-6.196;2023-04-25T17:25:07;10.32;;;2.67;;
35919;SDS011;36160;53.370;-6.196;2023-04-25T17:27:34;9.25;;;2.85;;
35919;SDS011;36160;53.370;-6.196;2023-04-25T17:30:00;11.95;;;3.63;;
35919;SDS011;36160;53.370;-6.196;2023-04-25T17:32:28;11.05;;;2.70;;
35919;SDS011;36160;53.370;-6.196;2023-04-25T17:34:54;10.98;;;2.63;;
35919;SDS011;36160;53.370;-6.196;2023-04-25T17:37:21;11.20;;;3.35;;
35919;SDS011;36160;53.370;-6.196;2023-04-25T17:39:47;10.20;;;2.50;;
35919;SDS011;36160;53.370;-6.196;2023-04-25T17:42:13;9.82;;;3.53;;
35919;SDS011;36160;53.370;-6.196;2023-04-25T17:44:40;4.63;;;2.63;;
35919;SDS011;36160;53.370;-6.196;2023-04-25T17:47:06;7.38;;;2.83;;
35919;SDS011;36160;53.370;-6.196;2023-04-25T17:49:31;8.05;;;2.30;;
35919;SDS011;36160;53.370;-6.196;2023-04-25T17:51:58;10.88;;;2.55;;
35919;SDS011;36160;53.370;-6.196;2023-04-25T17:54:25;8.80;;;2.40;;
35919;SDS011;36160;53.370;-6.196;2023-04-25T17:56:52;9.18;;;2.63;;
35919;SDS011;36160;53.370;-6.196;2023-04-25T17:59:18;15.57;;;3.13;;
35919;SDS011;36160;53.370;-6.196;2023-04-25T18:01:45;6.10;;;2.60;;
35919;SDS011;36160;53.370;-6.196;2023-04-25T18:04:11;10.55;;;2.90;;
35919;SDS011;36160;53.370;-6.196;2023-04-25T18:06:37;9.07;;;2.72;;
35919;SDS011;36160;53.370;-6.196;2023-04-25T18:09:03;12.18;;;2.60;;
35919;SDS011;36160;53.370;-6.196;2023-04-25T18:11:40;8.80;;;2.20;;
35919;SDS011;36160;53.370;-6.196;2023-04-25T18:14:06;10.77;;;4.03;;
35919;SDS011;36160;53.370;-6.196;2023-04-25T18:19:10;14.57;;;4.30;;
35919;SDS011;36160;53.370;-6.196;2023-04-25T18:21:40;18.73;;;4.50;;
35919;SDS011;36160;53.370;-6.196;2023-04-25T18:24:13;9.00;;;3.60;;
35919;SDS011;36160;53.370;-6.196;2023-04-25T18:26:42;6.60;;;3.42;;
35919;SDS011;36160;53.370;-6.196;2023-04-25T18:29:08;5.20;;;2.15;;
35919;SDS011;36160;53.370;-6.196;2023-04-25T18:31:35;8.95;;;3.58;;
35919;SDS011;36160;53.370;-6.196;2023-04-25T18:34:01;14.00;;;2.95;;
35919;SDS011;36160;53.370;-6.196;2023-04-25T18:36:27;7.13;;;2.92;;
35919;SDS011;36160;53.370;-6.196;2023-04-25T18:38:56;13.65;;;3.13;;
35919;SDS011;36160;53.370;-6.196;2023-04-25T18:41:23;9.43;;;2.35;;
35919;SDS011;36160;53.370;-6.196;2023-04-25T18:43:52;8.32;;;3.38;;
35919;SDS011;36160;53.370;-6.196;2023-04-25T18:46:19;8.50;;;2.85;;
35919;SDS011;36160;53.370;-6.196;2023-04-25T18:48:49;7.03;;;2.40;;
35919;SDS011;36160;53.370;-6.196;2023-04-25T18:51:15;8.23;;;2.20;;
35919;SDS011;36160;53.370;-6.196;2023-04-25T18:53:41;9.48;;;2.53;;
35919;SDS011;36160;53.370;-6.196;2023-04-25T18:56:07;8.75;;;2.40;;
35919;SDS011;36160;53.370;-6.196;2023-04-25T18:58:33;7.20;;;2.33;;
35919;SDS011;36160;53.370;-6.196;2023-04-25T19:00:59;5.10;;;3.17;;
35919;SDS011;36160;53.370;-6.196;2023-04-25T19:03:25;6.70;;;2.42;;
35919;SDS011;36160;53.370;-6.196;2023-04-25T19:05:52;6.70;;;2.72;;
35919;SDS011;36160;53.370;-6.196;2023-04-25T19:08:17;5.63;;;2.63;;
35919;SDS011;36160;53.370;-6.196;2023-04-25T19:10:44;10.15;;;2.58;;
35919;SDS011;36160;53.370;-6.196;2023-04-25T19:13:10;8.45;;;4.13;;
35919;SDS011;36160;53.370;-6.196;2023-04-25T19:15:36;10.52;;;3.63;;
35919;SDS011;36160;53.370;-6.196;2023-04-25T19:18:03;10.30;;;2.90;;
35919;SDS011;36160;53.370;-6.196;2023-04-25T19:27:49;11.10;;;3.90;;
35919;SDS011;36160;53.370;-6.196;2023-04-25T19:30:15;8.13;;;2.53;;
35919;SDS011;36160;53.370;-6.196;2023-04-25T19:32:40;8.52;;;2.70;;
35919;SDS011;36160;53.370;-6.196;2023-04-25T19:35:07;10.20;;;2.25;;
35919;SDS011;36160;53.370;-6.196;2023-04-25T19:37:34;9.77;;;4.57;;
35919;SDS011;36160;53.370;-6.196;2023-04-25T19:40:00;7.30;;;2.35;;
35919;SDS011;36160;53.370;-6.196;2023-04-25T19:42:25;11.80;;;3.05;;
35919;SDS011;36160;53.370;-6.196;2023-04-25T19:44:51;8.77;;;2.30;;
35919;SDS011;36160;53.370;-6.196;2023-04-25T19:47:17;7.32;;;2.40;;
35919;SDS011;36160;53.370;-6.196;2023-04-25T19:49:43;15.90;;;3.60;;
35919;SDS011;36160;53.370;-6.196;2023-04-25T19:52:09;9.50;;;2.45;;
35919;SDS011;36160;53.370;-6.196;2023-04-25T19:54:39;7.78;;;2.45;;
35919;SDS011;36160;53.370;-6.196;2023-04-25T19:57:06;11.43;;;2.47;;
35919;SDS011;36160;53.370;-6.196;2023-04-25T19:59:32;8.20;;;2.72;;
35919;SDS011;36160;53.370;-6.196;2023-04-25T20:01:58;9.02;;;2.35;;
35919;SDS011;36160;53.370;-6.196;2023-04-25T20:04:24;6.32;;;2.17;;
35919;SDS011;36160;53.370;-6.196;2023-04-25T20:06:50;8.85;;;2.47;;
35919;SDS011;36160;53.370;-6.196;2023-04-25T20:09:16;11.55;;;2.83;;
35919;SDS011;36160;53.370;-6.196;2023-04-25T20:11:44;7.65;;;3.38;;
35919;SDS011;36160;53.370;-6.196;2023-04-25T20:14:10;10.05;;;2.78;;
35919;SDS011;36160;53.370;-6.196;2023-04-25T20:16:36;6.47;;;2.78;;
35919;SDS011;36160;53.370;-6.196;2023-04-25T20:19:02;3.55;;;1.98;;
35919;SDS011;36160;53.370;-6.196;2023-04-25T20:21:29;6.32;;;2.30;;
35919;SDS011;36160;53.370;-6.196;2023-04-25T20:23:57;5.75;;;2.03;;
35919;SDS011;36160;53.370;-6.196;2023-04-25T20:26:25;12.25;;;2.67;;
35919;SDS011;36160;53.370;-6.196;2023-04-25T20:28:57;7.18;;;3.33;;
35919;SDS011;36160;53.370;-6.196;2023-04-25T20:31:24;10.15;;;4.97;;
35919;SDS011;36160;53.370;-6.196;2023-04-25T20:33:50;3.97;;;2.40;;
35919;SDS011;36160;53.370;-6.196;2023-04-25T20:36:16;5.47;;;2.60;;
35919;SDS011;36160;53.370;-6.196;2023-04-25T20:38:43;13.02;;;3.55;;
35919;SDS011;36160;53.370;-6.196;2023-04-25T20:41:09;10.15;;;2.85;;
35919;SDS011;36160;53.370;-6.196;2023-04-25T20:43:36;9.85;;;2.72;;
35919;SDS011;36160;53.370;-6.196;2023-04-25T20:46:04;13.25;;;3.70;;
35919;SDS011;36160;53.370;-6.196;2023-04-25T20:48:30;7.65;;;2.72;;
35919;SDS011;36160;53.370;-6.196;2023-04-25T20:50:56;8.70;;;2.50;;
35919;SDS011;36160;53.370;-6.196;2023-04-25T20:53:24;7.03;;;2.28;;
35919;SDS011;36160;53.370;-6.196;2023-04-25T20:55:50;5.75;;;2.25;;
35919;SDS011;36160;53.370;-6.196;2023-04-25T20:58:16;7.30;;;2.28;;
35919;SDS011;36160;53.370;-6.196;2023-04-25T21:00:42;12.93;;;2.47;;
35919;SDS011;36160;53.370;-6.196;2023-04-25T21:03:07;4.53;;;2.20;;
35919;SDS011;36160;53.370;-6.196;2023-04-25T21:05:34;5.70;;;2.75;;
35919;SDS011;36160;53.370;-6.196;2023-04-25T21:08:00;18.30;;;3.45;;
35919;SDS011;36160;53.370;-6.196;2023-04-25T21:10:26;6.70;;;2.50;;
35919;SDS011;36160;53.370;-6.196;2023-04-25T21:12:52;8.15;;;2.60;;
35919;SDS011;36160;53.370;-6.196;2023-04-25T21:15:19;6.95;;;2.75;;
35919;SDS011;36160;53.370;-6.196;2023-04-25T21:17:46;6.47;;;2.83;;
35919;SDS011;36160;53.370;-6.196;2023-04-25T21:20:15;7.18;;;2.65;;
35919;SDS011;36160;53.370;-6.196;2023-04-25T21:22:49;8.70;;;2.70;;
35919;SDS011;36160;53.370;-6.196;2023-04-25T21:25:15;11.05;;;2.60;;
35919;SDS011;36160;53.370;-6.196;2023-04-25T21:27:48;7.75;;;2.78;;
35919;SDS011;36160;53.370;-6.196;2023-04-25T21:30:15;7.45;;;2.45;;
35919;SDS011;36160;53.370;-6.196;2023-04-25T21:32:46;7.65;;;2.20;;
35919;SDS011;36160;53.370;-6.196;2023-04-25T21:35:12;10.18;;;2.35;;
35919;SDS011;36160;53.370;-6.196;2023-04-25T21:37:39;13.85;;;2.35;;
35919;SDS011;36160;53.370;-6.196;2023-04-25T21:40:05;7.25;;;2.13;;
35919;SDS011;36160;53.370;-6.196;2023-04-25T21:42:33;8.15;;;2.67;;
35919;SDS011;36160;53.370;-6.196;2023-04-25T21:45:02;10.50;;;2.65;;
35919;SDS011;36160;53.370;-6.196;2023-04-25T21:47:29;9.50;;;3.00;;
35919;SDS011;36160;53.370;-6.196;2023-04-25T21:49:56;9.65;;;2.25;;
35919;SDS011;36160;53.370;-6.196;2023-04-25T21:52:21;8.55;;;2.22;;
35919;SDS011;36160;53.370;-6.196;2023-04-25T21:54:47;6.80;;;1.83;;
35919;SDS011;36160;53.370;-6.196;2023-04-25T21:57:13;8.80;;;2.17;;
35919;SDS011;36160;53.370;-6.196;2023-04-25T21:59:39;10.73;;;4.15;;
35919;SDS011;36160;53.370;-6.196;2023-04-25T22:02:05;11.65;;;2.30;;
35919;SDS011;36160;53.370;-6.196;2023-04-25T22:04:32;5.03;;;2.78;;
35919;SDS011;36160;53.370;-6.196;2023-04-25T22:06:57;11.77;;;3.17;;
35919;SDS011;36160;53.370;-6.196;2023-04-25T22:09:23;9.20;;;2.67;;
35919;SDS011;36160;53.370;-6.196;2023-04-25T22:11:49;13.05;;;2.65;;
35919;SDS011;36160;53.370;-6.196;2023-04-25T22:14:17;16.58;;;2.75;;
35919;SDS011;36160;53.370;-6.196;2023-04-25T22:16:46;6.85;;;2.67;;
35919;SDS011;36160;53.370;-6.196;2023-04-25T22:19:14;12.48;;;2.75;;
35919;SDS011;36160;53.370;-6.196;2023-04-25T22:21:40;11.82;;;3.08;;
35919;SDS011;36160;53.370;-6.196;2023-04-25T22:24:06;6.10;;;2.08;;
35919;SDS011;36160;53.370;-6.196;2023-04-25T22:26:32;6.55;;;2.40;;
35919;SDS011;36160;53.370;-6.196;2023-04-25T22:28:58;8.35;;;3.03;;
35919;SDS011;36160;53.370;-6.196;2023-04-25T22:31:25;7.80;;;2.70;;
35919;SDS011;36160;53.370;-6.196;2023-04-25T22:33:51;7.82;;;2.72;;
35919;SDS011;36160;53.370;-6.196;2023-04-25T22:36:17;7.57;;;2.42;;
35919;SDS011;36160;53.370;-6.196;2023-04-25T22:38:43;14.23;;;2.47;;
35919;SDS011;36160;53.370;-6.196;2023-04-25T22:41:09;9.25;;;2.92;;
35919;SDS011;36160;53.370;-6.196;2023-04-25T22:43:38;11.38;;;4.15;;
35919;SDS011;36160;53.370;-6.196;2023-04-25T22:46:04;9.10;;;4.80;;
35919;SDS011;36160;53.370;-6.196;2023-04-25T22:48:30;6.70;;;2.95;;
35919;SDS011;36160;53.370;-6.196;2023-04-25T22:51:03;5.97;;;3.58;;
35919;SDS011;36160;53.370;-6.196;2023-04-25T22:53:30;9.10;;;3.28;;
35919;SDS011;36160;53.370;-6.196;2023-04-25T22:55:58;11.68;;;3.42;;